Time;durP1;ratioP1;P1;durP2;ratioP2;P2;SDS_P1;SDS_P2;PMS_P1;PMS_P2;Temp;Humidity;BMP_temperature;BMP_pressure;BME280_temperature;BME280_humidity;BME280_pressure;Samples;Min_cycle;Max_cycle;Signal;HPM_P1;HPM_P2
2022/02/02 00:02:38;;;;;;;19.57;10.90;;;;;;;-0.52;55.87;98820.98;1577188;89;21093;-82
2022/02/02 00:05:17;;;;;;;17.57;9.87;;;;;;;-0.54;56.07;98811.96;1576437;90;22336;-81
2022/02/02 00:07:45;;;;;;;18.97;9.07;;;;;;;-0.57;56.32;98818.13;1577738;90;21615;-80
2022/02/02 00:10:14;;;;;;;14.73;9.17;;;;;;;-0.61;56.48;98816.40;1569421;89;21929;-86
2022/02/02 00:12:47;;;;;;;16.43;8.80;;;;;;;-0.62;56.66;98808.67;1589537;89;21068;-84
2022/02/02 00:18:46;;;;;;;17.40;8.73;;;;;;;-0.67;57.20;98810.59;1585486;89;21597;-85
2022/02/02 00:20:28;;;;;;;18.47;9.50;;;;;;;-0.71;57.49;98809.87;1576749;90;21093;-85
2022/02/02 00:22:53;;;;;;;18.93;9.47;;;;;;;-0.72;57.84;98806.94;1577060;90;21641;-87
2022/02/02 00:25:23;;;;;;;23.03;10.47;;;;;;;-0.70;58.08;98811.00;1585540;89;21001;-74
2022/02/02 00:27:53;;;;;;;14.90;8.90;;;;;;;-0.70;58.28;98805.72;1564992;90;21076;-78
2022/02/02 00:30:20;;;;;;;15.30;9.97;;;;;;;-0.71;58.50;98805.91;1598702;88;21657;-78
2022/02/02 00:35:28;;;;;;;20.33;9.60;;;;;;;-0.72;58.97;98804.30;1577380;91;21174;-78
2022/02/02 00:37:52;;;;;;;21.27;10.73;;;;;;;-0.82;59.27;98794.13;1584494;90;20994;-79
2022/02/02 00:40:19;;;;;;;15.93;9.77;;;;;;;-0.84;59.63;98785.58;1578017;91;21033;-79
2022/02/02 00:42:48;;;;;;;21.60;9.67;;;;;;;-0.82;59.82;98787.53;1578501;91;21088;-78
2022/02/02 00:45:13;;;;;;;17.40;9.60;;;;;;;-0.87;60.00;98781.22;1577601;91;21085;-80
2022/02/02 00:47:40;;;;;;;15.30;8.77;;;;;;;-0.95;60.28;98780.36;1597990;89;21789;-81
2022/02/02 00:50:07;;;;;;;17.00;8.83;;;;;;;-0.98;60.65;98775.50;1579217;89;21093;-79
2022/02/02 00:52:34;;;;;;;19.27;10.03;;;;;;;-1.02;60.90;98770.31;1587028;90;21064;-79
2022/02/02 00:55:06;;;;;;;14.50;8.83;;;;;;;-1.04;61.07;98771.00;1580773;89;21160;-81
2022/02/02 00:57:37;;;;;;;17.57;9.67;;;;;;;-1.05;61.33;98767.23;1569850;90;21698;-80
2022/02/02 01:00:09;;;;;;;18.67;9.63;;;;;;;-1.07;61.42;98761.36;1565887;90;22921;-83
2022/02/02 01:02:36;;;;;;;16.50;8.70;;;;;;;-1.09;61.58;98761.55;1585459;90;21054;-81
2022/02/02 01:05:03;;;;;;;15.70;8.63;;;;;;;-1.11;61.80;98758.81;1576232;91;21025;-85
2022/02/02 01:07:49;;;;;;;17.43;10.53;;;;;;;-1.12;61.89;98757.18;1588600;89;21566;-78
2022/02/02 01:10:11;;;;;;;12.30;8.97;;;;;;;-1.11;61.95;98757.49;1606908;88;21121;-81
2022/02/02 01:18:10;;;;;;;14.77;7.57;;;;;;;-1.08;62.21;98732.84;1586983;89;21493;-80
2022/02/02 01:28:26;;;;;;;15.03;9.33;;;;;;;-1.57;63.74;98737.51;1593558;88;21025;-80
2022/02/02 01:30:52;;;;;;;16.03;9.77;;;;;;;-1.61;63.99;98730.50;1586008;89;21622;-81
2022/02/02 01:33:18;;;;;;;19.97;10.77;;;;;;;-1.60;64.21;98728.19;1585954;90;21049;-78
2022/02/02 01:35:45;;;;;;;17.47;9.37;;;;;;;-1.67;64.35;98735.73;1586207;90;21152;-78
2022/02/02 01:38:12;;;;;;;15.90;9.33;;;;;;;-1.68;64.50;98728.36;1585994;89;21815;-81
2022/02/02 01:40:44;;;;;;;17.73;9.20;;;;;;;-1.68;64.55;98730.98;1579902;88;21655;-79
2022/02/02 01:43:15;;;;;;;14.90;9.87;;;;;;;-1.67;64.56;98727.82;1618398;87;21032;-78
2022/02/02 01:45:43;;;;;;;13.93;8.37;;;;;;;-1.65;64.52;98726.64;1592975;87;21546;-78
2022/02/02 01:48:19;;;;;;;16.37;9.17;;;;;;;-1.64;64.41;98724.31;1619845;86;21059;-78
2022/02/02 01:55:46;;;;;;;15.10;9.28;;;;;;;-1.64;64.31;98723.00;1621691;88;21064;-83
2022/02/02 02:00:58;;;;;;;14.23;9.30;;;;;;;-1.64;64.35;98721.68;1613028;88;21078;-78
2022/02/02 02:03:24;;;;;;;13.17;8.20;;;;;;;-1.60;64.29;98716.83;1583510;88;21274;-78
2022/02/02 02:05:51;;;;;;;15.43;9.50;;;;;;;-1.62;64.16;98713.05;1592619;90;21032;-79
2022/02/02 02:08:18;;;;;;;14.67;8.90;;;;;;;-1.65;64.21;98710.00;1581627;90;21080;-80
2022/02/02 02:10:44;;;;;;;13.83;8.73;;;;;;;-1.68;64.16;98705.95;1592771;89;21140;-79
2022/02/02 02:13:29;;;;;;;13.77;10.23;;;;;;;-1.76;64.11;98709.55;1581933;90;21087;-82
2022/02/02 02:15:44;;;;;;;12.80;8.50;;;;;;;-1.79;64.19;98711.77;1573839;90;21105;-82
2022/02/02 02:18:11;;;;;;;14.10;9.90;;;;;;;-1.83;64.22;98709.22;1571007;90;21258;-83
2022/02/02 02:20:39;;;;;;;14.40;9.20;;;;;;;-1.83;64.30;98693.41;1584478;89;21140;-82
2022/02/02 02:23:06;;;;;;;11.23;7.37;;;;;;;-1.83;64.21;98696.04;1587522;89;21156;-76
2022/02/02 02:25:33;;;;;;;14.40;9.73;;;;;;;-1.85;64.12;98687.50;1577756;90;22142;-79
2022/02/02 02:30:49;;;;;;;16.30;9.57;;;;;;;-1.93;64.11;98684.54;1529538;91;21050;-81
2022/02/02 02:57:18;;;;;;;12.07;8.70;;;;;;;-2.27;64.50;98681.89;1626185;88;20995;-79
2022/02/02 03:00:06;;;;;;;14.60;7.87;;;;;;;-2.28;64.48;98681.58;1628317;86;21073;-77
2022/02/02 03:03:02;;;;;;;9.40;7.23;;;;;;;-2.38;64.73;98685.86;1625225;87;21023;-79
2022/02/02 03:32:51;;;;;;;15.60;12.53;;;;;;;-2.59;65.80;98665.37;1553773;92;35930;-83
2022/02/02 03:35:04;;;;;;;17.53;10.50;;;;;;;-2.54;65.56;98665.08;1575962;88;21985;-82
2022/02/02 03:51:21;;;;;;;13.00;9.20;;;;;;;-2.52;64.77;98660.45;1585996;89;21618;-80
2022/02/02 03:59:08;;;;;;;13.00;8.10;;;;;;;-2.70;64.78;98666.70;1614713;86;20153;-79
2022/02/02 04:06:20;;;;;;;15.23;8.90;;;;;;;-2.81;65.36;98652.23;1644247;86;21031;-80
2022/02/02 04:08:42;;;;;;;11.90;7.33;;;;;;;-2.92;65.57;98654.05;1636772;87;21023;-82
2022/02/02 04:12:17;;;;;;;14.13;7.53;;;;;;;-2.98;65.79;98654.83;1635280;87;21142;-80
2022/02/02 04:52:00;;;;;;;12.70;7.33;;;;;;;-2.81;65.30;98668.02;1635214;86;21066;-78
2022/02/02 05:04:52;;;;;;;14.47;8.90;;;;;;;-3.16;66.00;98664.95;1514795;93;21720;-78
2022/02/02 05:09:53;;;;;;;14.27;8.00;;;;;;;-3.42;66.70;98658.13;1637791;86;21012;-78
2022/02/02 05:20:26;;;;;;;20.07;11.63;;;;;;;-3.54;67.38;98657.78;1634125;86;21106;-80
2022/02/02 05:51:49;;;;;;;22.93;14.37;;;;;;;-3.88;69.29;98683.33;1621624;88;21023;-79
2022/02/02 05:54:11;;;;;;;20.23;11.77;;;;;;;-3.90;69.25;98682.72;1611512;86;21096;-78
2022/02/02 05:56:44;;;;;;;20.30;11.43;;;;;;;-3.90;69.35;98691.91;1635123;86;21084;-78
2022/02/02 05:59:11;;;;;;;8.93;6.87;;;;;;;-3.94;69.28;98691.14;1621855;88;21527;-80
2022/02/02 06:01:42;;;;;;;14.07;8.00;;;;;;;-3.99;69.47;98692.52;1601502;88;21043;-80
2022/02/02 06:04:09;;;;;;;21.53;10.97;;;;;;;-4.04;69.59;98685.67;1654386;86;21599;-79
2022/02/02 06:06:37;;;;;;;20.13;12.50;;;;;;;-4.04;69.82;98686.17;1635011;86;21019;-78
2022/02/02 06:09:03;;;;;;;19.27;9.73;;;;;;;-4.06;69.86;98688.97;1662236;85;21059;-76
2022/02/02 06:11:29;;;;;;;22.63;12.30;;;;;;;-4.05;69.90;98691.92;1650020;83;21148;-77
2022/02/02 06:13:59;;;;;;;24.40;10.60;;;;;;;-3.97;69.92;98692.31;1622944;86;21044;-77
2022/02/02 06:16:28;;;;;;;15.10;8.60;;;;;;;-3.87;69.72;98692.84;1621306;87;21150;-78
2022/02/02 06:19:01;;;;;;;17.87;10.23;;;;;;;-3.80;69.58;98691.14;1621557;88;21024;-76
2022/02/02 06:21:33;;;;;;;13.47;8.80;;;;;;;-3.82;69.29;98679.98;1621343;88;21071;-75
2022/02/02 06:24:11;;;;;;;16.87;11.03;;;;;;;-3.87;69.29;98673.65;1601169;88;21082;-82
2022/02/02 06:26:40;;;;;;;15.27;9.40;;;;;;;-3.88;69.32;98678.09;1601514;88;21552;-81
2022/02/02 06:29:12;;;;;;;15.63;10.57;;;;;;;-3.82;69.31;98679.17;1621631;88;21084;-82
2022/02/02 06:31:40;;;;;;;15.33;9.37;;;;;;;-3.77;69.00;98678.94;1601439;88;21106;-80
2022/02/02 06:34:09;;;;;;;15.93;9.30;;;;;;;-3.80;68.82;98681.95;1617480;86;21055;-78
2022/02/02 06:36:36;;;;;;;14.60;8.73;;;;;;;-3.81;68.97;98688.19;1622378;88;21055;-81
2022/02/02 06:39:05;;;;;;;21.07;10.50;;;;;;;-3.82;68.83;98678.67;1624332;87;21007;-80
2022/02/02 06:41:32;;;;;;;17.30;9.03;;;;;;;-3.88;68.93;98682.02;1628605;86;21544;-77
2022/02/02 06:44:03;;;;;;;15.33;10.50;;;;;;;-3.89;69.13;98683.05;1621346;88;21036;-77
2022/02/02 06:46:32;;;;;;;18.97;10.53;;;;;;;-3.90;69.24;98682.72;1601891;88;21544;-77
2022/02/02 06:48:59;;;;;;;18.53;9.93;;;;;;;-3.88;69.28;98684.65;1621702;87;21133;-81
2022/02/02 06:51:38;;;;;;;34.53;16.90;;;;;;;-3.84;69.26;98684.63;1601640;88;21551;-77
2022/02/02 06:54:22;;;;;;;49.10;23.47;;;;;;;-3.79;69.31;98682.77;1600150;88;21043;-77
2022/02/02 06:57:01;;;;;;;59.60;28.03;;;;;;;-3.70;69.05;98687.73;1600904;88;21047;-79
2022/02/02 07:02:10;;;;;;;45.73;23.97;;;;;;;-3.63;69.05;98679.41;1637225;86;21523;-80
2022/02/02 07:05:47;;;;;;;35.37;18.80;;;;;;;-3.56;69.06;98671.62;1602536;88;20931;-80
2022/02/02 07:07:37;;;;;;;26.23;16.90;;;;;;;-3.41;69.07;98674.22;1597893;89;21102;-79
2022/02/02 07:10:14;;;;;;;28.50;14.13;;;;;;;-3.27;68.75;98679.92;1579347;89;21118;-78
2022/02/02 07:12:49;;;;;;;22.07;12.97;;;;;;;-3.20;68.40;98675.53;1593987;86;21051;-80
2022/02/02 07:15:31;;;;;;;27.50;12.67;;;;;;;-3.12;68.13;98672.80;1603064;86;21817;-77
2022/02/02 07:18:15;;;;;;;22.07;12.83;;;;;;;-3.09;67.83;98672.41;1595735;89;21087;-79
2022/02/02 07:20:34;;;;;;;20.02;10.65;;;;;;;-3.07;67.65;98674.87;1606889;88;21540;-80
2022/02/02 07:28:34;;;;;;;22.73;14.43;;;;;;;-2.94;67.29;98679.75;1621501;88;21576;-81
2022/02/02 07:33:13;;;;;;;25.33;14.03;;;;;;;-2.76;66.76;98675.34;1602406;88;21119;-83
2022/02/02 07:35:52;;;;;;;13.93;9.40;;;;;;;-2.69;66.49;98674.91;1601869;88;21054;-83
2022/02/02 07:38:16;;;;;;;29.53;12.50;;;;;;;-2.64;66.30;98671.20;1623232;88;21536;-82
2022/02/02 07:40:46;;;;;;;17.20;9.40;;;;;;;-2.60;66.17;98666.37;1621881;88;21130;-82
2022/02/02 07:43:28;;;;;;;17.47;8.87;;;;;;;-2.52;66.12;98675.42;1641245;86;20952;-81
2022/02/02 07:46:01;;;;;;;23.05;12.05;;;;;;;-2.49;65.81;98671.09;1623767;87;21088;-82
2022/02/02 07:48:29;;;;;;;25.77;12.58;;;;;;;-2.44;65.80;98672.64;1622337;88;21544;-81
2022/02/02 07:50:57;;;;;;;21.47;11.47;;;;;;;-2.35;65.65;98663.09;1622104;88;21072;-80
2022/02/02 07:53:33;;;;;;;21.33;11.87;;;;;;;-2.26;65.18;98665.09;1623249;87;21724;-83
2022/02/02 07:55:51;;;;;;;22.03;12.47;;;;;;;-2.19;64.83;98658.03;1636041;86;21034;-73
2022/02/02 07:58:21;;;;;;;17.47;10.47;;;;;;;-2.10;64.74;98665.27;1622448;86;21553;-77
2022/02/02 08:00:47;;;;;;;20.80;11.40;;;;;;;-1.99;64.40;98663.42;1623087;86;21063;-78
2022/02/02 08:03:14;;;;;;;21.70;11.23;;;;;;;-1.93;64.21;98671.36;1647550;86;21024;-77
2022/02/02 08:05:45;;;;;;;15.60;8.83;;;;;;;-1.86;63.75;98668.74;1630328;86;21110;-77
2022/02/02 08:08:29;;;;;;;16.33;9.10;;;;;;;-1.77;63.47;98664.43;1636914;85;21035;-80
2022/02/02 08:10:46;;;;;;;13.45;8.18;;;;;;;-1.67;63.25;98676.42;1619491;87;20992;-82
2022/02/02 08:13:18;;;;;;;19.00;9.10;;;;;;;-1.55;62.93;98676.19;1622988;88;21666;-81
2022/02/02 08:15:41;;;;;;;11.13;7.43;;;;;;;-1.50;62.51;98667.19;1634118;86;21064;-76
2022/02/02 08:18:07;;;;;;;16.13;7.70;;;;;;;-1.45;62.32;98667.41;1627324;87;21305;-76
2022/02/02 08:20:34;;;;;;;13.80;7.90;;;;;;;-1.39;61.97;98675.32;1601494;88;21074;-76
2022/02/02 08:23:01;;;;;;;18.07;9.20;;;;;;;-1.37;61.74;98673.81;1622039;86;21146;-76
2022/02/02 08:25:30;;;;;;;13.33;7.13;;;;;;;-1.36;61.82;98676.26;1605909;87;21059;-78
2022/02/02 08:28:01;;;;;;;14.43;7.70;;;;;;;-1.30;61.71;98675.98;1622952;86;21027;-84
2022/02/02 08:30:30;;;;;;;17.70;8.40;;;;;;;-1.22;61.65;98669.19;1597376;88;21170;-82
2022/02/02 08:33:01;;;;;;;13.23;7.47;;;;;;;-1.16;61.15;98667.59;1597818;89;21133;-81
2022/02/02 08:35:34;;;;;;;13.10;6.80;;;;;;;-1.13;61.08;98671.12;1683794;84;21043;-83
2022/02/02 08:38:11;;;;;;;23.77;10.70;;;;;;;-1.13;60.92;98672.45;1642624;86;20936;-82
2022/02/02 08:40:41;;;;;;;26.03;10.93;;;;;;;-1.12;61.26;98670.13;1631114;87;21111;-80
2022/02/02 08:43:11;;;;;;;22.50;9.17;;;;;;;-1.02;61.73;98667.91;1603620;87;21086;-80
2022/02/02 08:45:37;;;;;;;17.77;8.53;;;;;;;-0.96;61.49;98662.63;1631801;87;21038;-81
2022/02/02 08:48:08;;;;;;;16.90;9.47;;;;;;;-0.91;61.14;98652.28;1631046;87;21030;-78
2022/02/02 08:50:46;;;;;;;18.17;9.37;;;;;;;-0.90;61.59;98643.86;1621833;87;21019;-80
2022/02/02 08:53:31;;;;;;;17.57;10.73;;;;;;;-0.89;61.74;98653.41;1601197;88;21068;-86
2022/02/02 08:58:35;;;;;;;16.23;9.43;;;;;;;-0.93;62.21;98645.59;1598686;88;21040;-84
2022/02/02 09:01:02;;;;;;;19.00;9.63;;;;;;;-0.91;62.26;98647.00;1610402;88;21044;-85
2022/02/02 09:06:15;;;;;;;25.97;10.83;;;;;;;-0.79;62.37;98648.55;1621468;87;21572;-77
2022/02/02 09:08:44;;;;;;;15.93;6.90;;;;;;;-0.82;62.65;98647.64;1620562;88;21805;-79
2022/02/02 09:25:16;;;;;;;17.23;9.83;;;;;;;-0.75;64.38;98638.39;1630081;86;20973;-83
2022/02/02 09:35:42;;;;;;;14.47;9.73;;;;;;;-0.56;64.95;98623.05;1621783;86;21140;-83
2022/02/02 09:38:10;;;;;;;15.87;8.10;;;;;;;-0.52;64.86;98617.15;1621759;88;21000;-86
2022/02/02 09:43:18;;;;;;;16.97;9.13;;;;;;;-0.44;64.92;98606.89;1629425;87;21075;-80
2022/02/02 09:45:51;;;;;;;16.90;9.47;;;;;;;-0.45;65.06;98607.91;1621324;87;21107;-79
2022/02/02 09:48:31;;;;;;;23.73;11.00;;;;;;;-0.47;65.14;98601.50;1597632;89;21104;-80
2022/02/02 09:50:57;;;;;;;19.53;9.53;;;;;;;-0.44;65.27;98600.30;1616773;88;21616;-78
2022/02/02 09:53:34;;;;;;;16.33;9.57;;;;;;;-0.37;65.42;98587.06;1628850;87;21196;-82
2022/02/02 09:56:49;;;;;;;17.80;10.03;;;;;;;-0.32;65.50;98586.74;1568685;88;21074;-82
2022/02/02 09:59:23;;;;;;;17.80;10.33;;;;;;;-0.29;65.52;98582.39;1615708;88;21134;-82
2022/02/02 10:04:36;;;;;;;20.00;11.33;;;;;;;-0.14;66.05;98567.58;1633710;87;21078;-84
2022/02/02 10:15:31;;;;;;;17.00;10.57;;;;;;;0.23;66.24;98557.58;1635496;87;21178;-82
2022/02/02 10:18:28;;;;;;;;;;;;;;;;;;;;;
2022/02/02 10:20:43;;;;;;;17.37;10.23;;;;;;;0.35;66.49;98557.20;1621630;86;21044;-84
2022/02/02 10:23:14;;;;;;;19.80;10.80;;;;;;;0.43;66.52;98556.16;1612254;86;21612;-85
2022/02/02 10:25:43;;;;;;;14.37;10.00;;;;;;;0.46;66.50;98558.87;1600719;87;21134;-88
2022/02/02 10:28:16;;;;;;;17.40;11.63;;;;;;;0.50;66.62;98556.91;1633460;87;21019;-78
2022/02/02 10:30:53;;;;;;;22.43;12.10;;;;;;;0.52;66.69;98561.48;1629492;87;21192;-82
2022/02/02 10:33:24;;;;;;;17.57;8.70;;;;;;;0.57;67.00;98562.17;1632875;87;21655;-85
2022/02/02 10:35:57;;;;;;;19.73;11.07;;;;;;;0.63;67.05;98554.17;1606455;87;21067;-86
2022/02/02 10:38:31;;;;;;;19.00;11.70;;;;;;;0.65;66.89;98545.52;1634368;86;21047;-86
2022/02/02 10:41:15;;;;;;;27.70;12.20;;;;;;;0.66;67.02;98541.05;1617737;86;21812;-84
2022/02/02 10:43:51;;;;;;;20.37;11.60;;;;;;;0.71;67.06;98525.34;1623817;86;20998;-88
2022/02/02 10:46:51;;;;;;;19.83;13.07;;;;;;;0.77;67.09;98529.75;1638682;86;21083;-80
2022/02/02 10:49:22;;;;;;;25.17;13.70;;;;;;;0.76;67.06;98534.26;1649742;85;21007;-78
2022/02/02 10:51:59;;;;;;;33.27;13.40;;;;;;;0.75;67.37;98525.20;1612647;88;21126;-75
2022/02/02 10:54:31;;;;;;;29.43;13.13;;;;;;;0.79;67.62;98523.23;1639112;86;21332;-79
2022/02/02 10:57:32;;;;;;;26.27;13.10;;;;;;;0.87;67.69;98521.63;1604189;88;21043;-78
2022/02/02 11:08:01;;;;;;;24.17;14.23;;;;;;;1.08;67.84;98507.71;1632497;86;21037;-93
2022/02/02 11:10:29;;;;;;;22.03;11.83;;;;;;;1.09;68.01;98499.56;1626972;87;21541;-85
2022/02/02 11:12:57;;;;;;;25.90;12.40;;;;;;;1.15;68.16;98495.23;1628336;88;21568;-85
2022/02/02 11:15:35;;;;;;;26.50;12.33;;;;;;;1.22;68.45;98494.13;1639572;84;52849;-89
2022/02/02 11:18:09;;;;;;;17.97;10.17;;;;;;;1.23;68.42;98489.14;1654310;85;21564;-87
2022/02/02 11:20:45;;;;;;;22.43;12.50;;;;;;;1.30;68.49;98482.42;1633529;87;21118;-88
2022/02/02 11:23:13;;;;;;;25.40;12.47;;;;;;;1.39;68.67;98483.75;1640213;86;21088;-91
2022/02/02 11:25:54;;;;;;;21.83;11.27;;;;;;;1.52;68.54;98478.33;1658687;86;21010;-78
2022/02/02 11:28:33;;;;;;;20.63;11.57;;;;;;;1.58;68.58;98478.75;1648564;86;21146;-82
2022/02/02 11:31:17;;;;;;;21.63;11.70;;;;;;;1.60;68.87;98476.70;1658133;86;21016;-87
2022/02/02 11:33:55;;;;;;;20.73;11.30;;;;;;;1.63;68.89;98468.84;1656652;86;21283;-80
2022/02/02 11:36:31;;;;;;;21.03;11.43;;;;;;;1.66;69.02;98465.73;1662239;85;21001;-86
2022/02/02 11:38:56;;;;;;;22.05;10.78;;;;;;;1.68;69.17;98469.77;1667862;85;21568;-81
2022/02/02 11:44:27;;;;;;;17.33;10.27;;;;;;;1.69;69.62;98462.11;1660852;86;21645;-87
2022/02/02 11:50:02;;;;;;;16.80;10.60;;;;;;;1.74;70.07;98454.82;1664050;85;20931;-84
2022/02/02 11:52:38;;;;;;;19.30;11.67;;;;;;;1.80;70.32;98451.80;1659489;85;21095;-88
2022/02/02 11:55:16;;;;;;;21.53;10.93;;;;;;;1.83;70.42;98462.75;1657636;85;21062;-88
2022/02/02 11:57:58;;;;;;;19.57;10.53;;;;;;;1.84;70.43;98454.29;1669653;84;20983;-84
2022/02/02 12:00:33;;;;;;;30.80;12.17;;;;;;;1.80;70.74;98456.58;1659730;86;21403;-86
2022/02/02 12:03:18;;;;;;;16.65;9.93;;;;;;;1.73;71.06;98462.47;1594021;87;21147;-87
2022/02/02 12:56:12;;;;;;;22.25;10.72;;;;;;;2.04;72.77;98463.60;1638610;86;21144;-85
2022/02/02 13:00:24;;;;;;;17.60;10.53;;;;;;;2.03;72.68;98460.66;1635856;86;20991;-72
2022/02/02 13:02:51;;;;;;;14.30;8.43;;;;;;;2.03;72.63;98459.84;1658364;86;21021;-81
2022/02/02 13:05:24;;;;;;;23.97;9.50;;;;;;;2.00;72.96;98452.34;1661651;85;20977;-77
2022/02/02 13:07:55;;;;;;;15.98;10.00;;;;;;;1.96;73.05;98463.11;1656200;86;21751;-74
2022/02/02 13:10:25;;;;;;;13.48;10.68;;;;;;;1.94;73.18;98464.66;1672168;85;21044;-75
2022/02/02 13:13:14;;;;;;;13.72;8.53;;;;;;;1.97;73.21;98468.69;1661133;84;21056;-82
2022/02/02 13:18:30;;;;;;;17.73;9.35;;;;;;;1.93;73.47;98466.19;1618233;86;21101;-78
2022/02/02 13:23:52;;;;;;;29.57;11.50;;;;;;;1.93;73.49;98470.17;1661640;85;21011;-78
2022/02/02 13:26:34;;;;;;;17.62;9.55;;;;;;;1.91;73.49;98471.73;1639955;86;21076;-78
2022/02/02 13:29:17;;;;;;;20.65;8.43;;;;;;;1.93;73.50;98476.80;1655066;86;21599;-79
2022/02/02 13:32:08;;;;;;;18.75;11.05;;;;;;;1.95;73.60;98494.63;1654709;86;21063;-76
2022/02/02 13:37:55;;;;;;;13.47;8.33;;;;;;;1.85;74.11;98487.72;1604945;86;21054;-78
2022/02/02 13:43:21;;;;;;;19.62;9.73;;;;;;;1.92;74.20;98494.55;1659301;85;21048;-78
2022/02/02 13:54:10;;;;;;;16.55;9.78;;;;;;;1.89;74.47;98496.33;1657578;84;20954;-81
2022/02/02 14:02:07;;;;;;;18.27;10.95;;;;;;;1.83;74.91;98500.37;1664404;84;21079;-75
2022/02/02 14:04:48;;;;;;;20.63;9.97;;;;;;;1.77;75.05;98503.42;1683325;85;21529;-83
2022/02/02 14:31:05;;;;;;;20.23;10.77;;;;;;;1.64;75.89;98520.78;1649682;87;21054;-84
2022/02/02 14:31:33;;;;;;;16.93;10.30;;;;;;;1.59;76.22;98514.01;1669579;85;21031;-77
2022/02/02 14:33:59;;;;;;;13.87;9.80;;;;;;;1.54;76.35;98513.86;1660212;85;21062;-77
2022/02/02 14:36:29;;;;;;;14.40;9.03;;;;;;;1.53;76.38;98515.72;1651357;86;21078;-79
2022/02/02 14:39:11;;;;;;;16.47;8.70;;;;;;;1.53;76.54;98518.38;1649928;85;21674;-79
2022/02/02 14:41:43;;;;;;;16.80;9.73;;;;;;;1.49;76.59;98507.89;1659432;86;21053;-78
2022/02/02 14:44:30;;;;;;;11.23;8.20;;;;;;;1.50;76.58;98511.36;1658344;85;20950;-84
2022/02/02 14:47:11;;;;;;;16.02;9.13;;;;;;;1.50;76.62;98520.63;1658118;85;21410;-83
2022/02/02 14:49:51;;;;;;;;;;;;;;;1.46;76.66;98517.62;1642064;86;21036;-76
2022/02/02 15:29:56;;;;;;;24.93;15.30;;;;;;;1.05;79.31;98533.31;1662926;86;21566;-86
2022/02/02 15:32:19;;;;;;;28.27;17.23;;;;;;;1.01;79.42;98522.86;1635968;87;21703;-85
2022/02/02 15:34:55;;;;;;;30.30;15.63;;;;;;;1.01;79.63;98530.80;1635719;87;21754;-81
2022/02/02 15:37:26;;;;;;;31.53;16.70;;;;;;;0.95;80.00;98531.66;1657559;86;21583;-87
2022/02/02 15:40:06;;;;;;;29.90;17.87;;;;;;;0.92;80.03;98530.24;1634893;87;20983;-82
2022/02/02 15:58:35;;;;;;;32.40;18.20;;;;;;;0.66;81.58;98533.11;1652063;86;21482;-78
2022/02/02 16:03:37;;;;;;;33.20;19.93;;;;;;;0.62;81.97;98538.53;1651010;87;21016;-78
2022/02/02 16:06:08;;;;;;;27.50;16.07;;;;;;;0.62;82.00;98533.24;1649287;86;21026;-73
2022/02/02 16:08:30;;;;;;;28.50;15.93;;;;;;;0.61;82.23;98543.01;1647467;86;21547;-76
2022/02/02 16:13:48;;;;;;;30.57;17.47;;;;;;;0.54;82.60;98548.84;1645680;87;21155;-77
2022/02/02 16:18:55;;;;;;;29.57;19.30;;;;;;;0.48;82.85;98552.33;1646115;85;21048;-82
2022/02/02 16:37:59;;;;;;;35.55;20.32;;;;;;;0.40;83.64;98555.23;1650154;82;21027;-86
2022/02/02 16:40:31;;;;;;;33.20;19.90;;;;;;;0.42;83.70;98555.34;1648174;87;21162;-86
2022/02/02 16:43:13;;;;;;;36.40;20.00;;;;;;;0.39;83.65;98548.31;1647097;87;21107;-83
2022/02/02 16:45:38;;;;;;;43.50;23.27;;;;;;;0.39;83.69;98554.93;1642808;85;21029;-87
2022/02/02 16:48:05;;;;;;;31.43;19.83;;;;;;;0.38;83.71;98555.98;1657574;85;21056;-85
2022/02/02 16:50:35;;;;;;;35.47;20.80;;;;;;;0.36;83.83;98560.15;1664321;85;21008;-87
2022/02/02 16:53:05;;;;;;;26.70;16.63;;;;;;;0.38;83.83;98557.30;1679051;84;21552;-90
2022/02/02 16:55:36;;;;;;;24.30;12.40;;;;;;;0.37;83.86;98558.31;1652746;86;21027;-88
2022/02/02 16:58:08;;;;;;;32.30;17.13;;;;;;;0.36;83.98;98560.66;1625973;86;21052;-87
2022/02/02 17:33:36;;;;;;;29.50;16.47;;;;;;;0.20;84.47;98565.10;1655202;86;21934;-85
2022/02/02 17:36:16;;;;;;;26.43;19.43;;;;;;;0.21;84.50;98563.58;1655262;86;21022;-85
2022/02/02 18:19:25;;;;;;;20.17;13.97;;;;;;;0.14;85.19;98552.75;1650433;86;21035;-81
2022/02/02 18:21:52;;;;;;;23.40;14.90;;;;;;;0.13;85.26;98559.86;1667391;84;21022;-83
2022/02/02 18:24:28;;;;;;;28.57;13.90;;;;;;;0.10;85.32;98558.95;1636077;87;21082;-78
2022/02/02 18:27:02;;;;;;;30.07;15.83;;;;;;;0.09;85.48;98557.34;1612703;89;21824;-86
2022/02/02 18:29:35;;;;;;;22.13;14.30;;;;;;;0.11;85.41;98561.08;1611232;89;21061;-77
2022/02/02 18:34:49;;;;;;;26.70;14.90;;;;;;;0.03;85.66;98552.89;1659062;85;21048;-85
2022/02/02 18:48:06;;;;;;;28.00;16.43;;;;;;;0.08;86.01;98566.80;1655922;85;21560;-71
2022/02/02 18:58:30;;;;;;;35.93;17.97;;;;;;;0.08;86.74;98558.87;1636640;87;21045;-70
2022/02/02 19:03:48;;;;;;;31.60;16.03;;;;;;;0.10;87.09;98568.70;1655212;86;21033;-84
2022/02/02 19:39:39;;;;;;;38.93;22.23;;;;;;;0.43;87.38;98587.35;1639024;86;21044;-79
2022/02/02 19:52:27;;;;;;;31.23;17.53;;;;;;;0.48;87.86;98583.28;1594821;89;21126;-76
2022/02/02 20:03:29;;;;;;;24.87;15.93;;;;;;;0.56;87.98;98586.48;1663211;86;21033;-80
2022/02/02 20:05:42;;;;;;;35.60;21.37;;;;;;;0.54;88.17;98588.52;1650133;85;20997;-85
2022/02/02 20:13:16;;;;;;;35.97;19.87;;;;;;;0.51;88.55;98588.95;1675177;85;21308;-85
2022/02/02 20:15:54;;;;;;;37.83;21.83;;;;;;;0.50;88.86;98589.97;1673150;85;21006;-84
2022/02/02 20:18:28;;;;;;;34.63;21.83;;;;;;;0.50;88.83;98593.94;1661615;85;20958;-84
2022/02/02 20:20:58;;;;;;;39.77;21.70;;;;;;;0.50;89.12;98589.16;1662596;85;21112;-78
2022/02/02 20:23:26;;;;;;;31.60;21.77;;;;;;;0.53;89.22;98590.08;1673479;85;21058;-83
2022/02/02 20:25:55;;;;;;;38.87;21.87;;;;;;;0.56;89.20;98590.96;1657704;86;21775;-80
2022/02/02 20:28:24;;;;;;;32.23;20.00;;;;;;;0.60;89.18;98585.03;1657356;86;21034;-85
2022/02/02 20:30:50;;;;;;;40.70;23.67;;;;;;;0.63;89.09;98593.03;1673222;85;20997;-83
2022/02/02 20:33:17;;;;;;;38.40;23.27;;;;;;;0.60;89.07;98589.51;1676375;85;21115;-86
2022/02/02 20:35:45;;;;;;;35.67;24.60;;;;;;;0.60;89.24;98587.67;1664345;85;21559;-79
2022/02/02 20:38:12;;;;;;;35.07;21.00;;;;;;;0.61;89.25;98580.55;1661624;85;21180;-79
2022/02/02 20:40:38;;;;;;;35.33;21.07;;;;;;;0.61;89.28;98593.78;1662757;85;20972;-78
2022/02/02 20:43:10;;;;;;;46.37;24.37;;;;;;;0.61;89.38;98588.48;1663040;86;21111;-79
2022/02/02 21:07:50;;;;;;;32.57;20.83;;;;;;;0.70;89.79;98608.38;1667991;85;21001;-77
2022/02/02 21:10:12;;;;;;;39.53;23.20;;;;;;;0.68;89.86;98619.16;1663492;86;21082;-81
2022/02/02 21:15:26;;;;;;;35.10;22.03;;;;;;;0.67;90.01;98617.53;1657327;86;21716;-81
2022/02/02 21:17:54;;;;;;;38.08;23.20;;;;;;;0.66;90.09;98625.20;1666829;85;21139;-82
2022/02/02 21:20:32;;;;;;;40.70;23.37;;;;;;;0.68;90.13;98623.64;1665177;85;21111;-85
2022/02/02 21:23:05;;;;;;;35.00;20.80;;;;;;;0.72;90.17;98619.57;1656171;85;21024;-81
2022/02/02 21:25:40;;;;;;;37.60;20.33;;;;;;;0.68;90.08;98624.45;1673416;85;21090;-84
2022/02/02 21:28:04;;;;;;;34.95;19.75;;;;;;;0.70;90.16;98622.92;1655990;85;21032;-80
2022/02/02 21:30:32;;;;;;;35.00;20.03;;;;;;;0.71;90.11;98624.55;1663622;85;21155;-78
2022/02/02 21:32:59;;;;;;;39.53;22.40;;;;;;;0.70;90.10;98629.03;1663640;85;21538;-78
2022/02/02 21:35:25;;;;;;;39.00;21.37;;;;;;;0.72;90.13;98630.16;1676856;85;21073;-78
2022/02/02 21:38:00;;;;;;;34.50;20.70;;;;;;;0.72;90.19;98624.32;1654253;86;21116;-78
2022/02/02 21:40:26;;;;;;;36.03;23.47;;;;;;;0.71;90.14;98630.66;1654084;86;21044;-78
2022/02/02 21:42:54;;;;;;;30.93;18.90;;;;;;;0.71;90.23;98635.95;1652128;85;23792;-86
2022/02/02 21:45:20;;;;;;;36.57;22.50;;;;;;;0.74;90.28;98635.52;1677131;85;20987;-83
2022/02/02 21:47:47;;;;;;;36.77;20.60;;;;;;;0.69;90.18;98641.14;1659304;85;21551;-82
2022/02/02 21:50:18;;;;;;;29.83;20.70;;;;;;;0.68;90.34;98640.33;1656379;86;21049;-81
2022/02/02 21:52:45;;;;;;;23.00;13.30;;;;;;;0.67;90.45;98648.50;1676509;85;21085;-82
2022/02/02 21:55:13;;;;;;;38.13;21.83;;;;;;;0.62;90.69;98650.45;1662609;85;20976;-84
2022/02/02 21:57:45;;;;;;;36.87;20.50;;;;;;;0.58;90.77;98645.77;1658652;85;21570;-90
2022/02/02 22:00:16;;;;;;;31.90;19.07;;;;;;;0.60;90.96;98649.03;1620442;87;21029;-91
2022/02/02 22:02:47;;;;;;;38.57;22.97;;;;;;;0.57;91.03;98644.17;1648553;86;21106;-83